Time;durP1;ratioP1;P1;durP2;ratioP2;P2;SDS_P1;SDS_P2;PMS_P1;PMS_P2;Temp;Humidity;BMP_temperature;BMP_pressure;BME280_temperature;BME280_humidity;BME280_pressure;Samples;Min_cycle;Max_cycle;Signal;HPM_P1;HPM_P2
2023/05/21 00:01:05;;;;;;;7.67;6.47;;;;;;;;;;5075905;28;20445;-70
2023/05/21 00:03:34;;;;;;;6.60;5.33;;;;;;;;;;5075966;28;20802;-68
2023/05/21 00:06:02;;;;;;;8.43;6.90;;;;;;;;;;5075578;28;20482;-69
2023/05/21 00:08:29;;;;;;;7.90;7.20;;;;;;;;;;5075559;28;20475;-69
2023/05/21 00:10:56;;;;;;;10.03;8.43;;;;;;;;;;5075924;28;20448;-69
2023/05/21 00:13:24;;;;;;;11.60;8.33;;;;;;;;;;5075599;28;20454;-69
2023/05/21 00:15:51;;;;;;;15.83;13.70;;;;;;;;;;5075530;28;20483;-68
2023/05/21 00:18:21;;;;;;;8.47;7.63;;;;;;;;;;5075159;28;20447;-69
2023/05/21 00:20:48;;;;;;;7.83;7.13;;;;;;;;;;5075605;28;20443;-69
2023/05/21 00:23:17;;;;;;;10.00;9.07;;;;;;;;;;5075506;28;20446;-69
2023/05/21 00:25:45;;;;;;;8.43;6.80;;;;;;;;;;5075407;28;20458;-68
2023/05/21 00:28:12;;;;;;;8.40;7.57;;;;;;;;;;5074923;28;20976;-68
2023/05/21 00:30:41;;;;;;;8.83;7.00;;;;;;;;;;5075232;28;20436;-69
2023/05/21 00:33:12;;;;;;;9.97;8.47;;;;;;;;;;5075120;28;20450;-68
2023/05/21 00:35:41;;;;;;;12.90;8.03;;;;;;;;;;5075856;28;20462;-69
2023/05/21 00:38:08;;;;;;;7.60;6.90;;;;;;;;;;5075075;28;20459;-68
2023/05/21 00:40:35;;;;;;;10.20;8.00;;;;;;;;;;5075334;28;20948;-69
2023/05/21 00:43:02;;;;;;;14.07;8.53;;;;;;;;;;5075018;28;20443;-68
2023/05/21 00:45:29;;;;;;;8.80;8.00;;;;;;;;;;5074966;28;20454;-68
2023/05/21 00:47:57;;;;;;;14.13;10.10;;;;;;;;;;5074882;28;20447;-69
2023/05/21 00:50:24;;;;;;;8.60;7.70;;;;;;;;;;5074692;28;20444;-69
2023/05/21 00:52:53;;;;;;;6.33;5.73;;;;;;;;;;5074572;28;20446;-68
2023/05/21 00:55:20;;;;;;;7.00;6.30;;;;;;;;;;5075181;28;20449;-68
2023/05/21 00:57:48;;;;;;;9.73;6.63;;;;;;;;;;5074939;28;20452;-68
2023/05/21 01:00:15;;;;;;;7.30;6.60;;;;;;;;;;5075209;28;20446;-69
2023/05/21 01:02:43;;;;;;;7.53;6.67;;;;;;;;;;5074695;28;20557;-68
2023/05/21 01:05:11;;;;;;;7.03;6.33;;;;;;;;;;5074734;28;20439;-68
2023/05/21 01:07:40;;;;;;;8.10;7.30;;;;;;;;;;5074594;28;20853;-68
2023/05/21 01:10:10;;;;;;;7.87;7.07;;;;;;;;;;5074517;28;20834;-69
2023/05/21 01:12:38;;;;;;;11.00;7.33;;;;;;;;;;5074874;28;20447;-69
2023/05/21 01:15:06;;;;;;;7.13;6.40;;;;;;;;;;5074357;28;20443;-69
2023/05/21 01:17:34;;;;;;;8.50;7.30;;;;;;;;;;5073707;28;20480;-68
2023/05/21 01:20:05;;;;;;;8.30;6.60;;;;;;;;;;5074117;28;20941;-68
2023/05/21 01:22:32;;;;;;;6.30;5.70;;;;;;;;;;5074474;28;20440;-68
2023/05/21 01:25:02;;;;;;;7.77;7.03;;;;;;;;;;5074365;28;20437;-68
2023/05/21 01:27:29;;;;;;;9.90;8.93;;;;;;;;;;5074201;28;20495;-68
2023/05/21 01:29:57;;;;;;;7.53;6.83;;;;;;;;;;5074462;28;20483;-68
2023/05/21 01:32:27;;;;;;;8.20;7.40;;;;;;;;;;5074242;28;20446;-68
2023/05/21 01:34:57;;;;;;;12.20;7.93;;;;;;;;;;5074281;28;20513;-67
2023/05/21 01:37:27;;;;;;;8.70;7.57;;;;;;;;;;5073721;28;20450;-68
2023/05/21 01:39:56;;;;;;;8.00;6.33;;;;;;;;;;5073897;28;20547;-68
2023/05/21 01:42:25;;;;;;;8.67;6.60;;;;;;;;;;5074019;28;20449;-68
2023/05/21 01:44:54;;;;;;;7.80;7.07;;;;;;;;;;5073890;28;20451;-68
2023/05/21 01:47:22;;;;;;;9.27;7.30;;;;;;;;;;5074472;28;20446;-67
2023/05/21 01:49:49;;;;;;;8.17;7.37;;;;;;;;;;5073796;28;20485;-68
2023/05/21 01:52:16;;;;;;;8.53;7.60;;;;;;;;;;5073916;28;20434;-68
2023/05/21 01:54:43;;;;;;;7.70;6.90;;;;;;;;;;5073746;28;20447;-68
2023/05/21 01:57:10;;;;;;;7.67;7.00;;;;;;;;;;5073780;28;20443;-68
2023/05/21 01:59:39;;;;;;;11.80;7.47;;;;;;;;;;5073691;28;20429;-68
2023/05/21 02:02:06;;;;;;;8.60;7.80;;;;;;;;;;5073737;28;20502;-68
2023/05/21 02:04:33;;;;;;;10.43;7.77;;;;;;;;;;5073757;28;20547;-68
2023/05/21 02:07:01;;;;;;;8.63;7.77;;;;;;;;;;5073700;28;20438;-68
2023/05/21 02:09:28;;;;;;;7.60;6.80;;;;;;;;;;5073496;28;20480;-68
2023/05/21 02:11:57;;;;;;;8.17;7.10;;;;;;;;;;5073289;28;20452;-68
2023/05/21 02:14:25;;;;;;;10.57;7.33;;;;;;;;;;5073469;28;20507;-68
2023/05/21 02:16:53;;;;;;;11.03;7.43;;;;;;;;;;5073225;28;20476;-68
2023/05/21 02:19:20;;;;;;;8.40;7.47;;;;;;;;;;5073237;28;20432;-68
2023/05/21 02:21:48;;;;;;;8.60;7.80;;;;;;;;;;5073274;28;20435;-68
2023/05/21 02:24:15;;;;;;;9.43;7.37;;;;;;;;;;5073460;28;20446;-68
2023/05/21 02:26:42;;;;;;;15.50;8.07;;;;;;;;;;5073130;28;20488;-68
2023/05/21 02:29:10;;;;;;;8.00;7.20;;;;;;;;;;5073313;28;20529;-67
2023/05/21 02:31:37;;;;;;;10.10;8.20;;;;;;;;;;5072940;28;20454;-68
2023/05/21 02:34:06;;;;;;;9.50;8.10;;;;;;;;;;5072858;28;20448;-68
2023/05/21 02:36:34;;;;;;;11.63;7.67;;;;;;;;;;5073031;28;20434;-68
2023/05/21 02:39:02;;;;;;;8.30;7.47;;;;;;;;;;5073709;28;20878;-68
2023/05/21 02:41:30;;;;;;;8.13;7.33;;;;;;;;;;5073620;28;20803;-68
2023/05/21 02:43:57;;;;;;;8.30;7.47;;;;;;;;;;5073385;28;20439;-68
2023/05/21 02:46:24;;;;;;;8.27;7.53;;;;;;;;;;5073144;28;20449;-68
2023/05/21 02:48:51;;;;;;;8.97;8.03;;;;;;;;;;5072781;28;20478;-68
2023/05/21 02:51:20;;;;;;;9.10;8.20;;;;;;;;;;5076753;28;20531;-68
2023/05/21 02:53:47;;;;;;;10.17;8.50;;;;;;;;;;5077420;28;20441;-68
2023/05/21 02:56:14;;;;;;;12.37;8.20;;;;;;;;;;5077236;28;20449;-67
2023/05/21 02:58:41;;;;;;;9.30;7.93;;;;;;;;;;5076805;28;20915;-68
2023/05/21 03:01:09;;;;;;;9.50;8.57;;;;;;;;;;5076859;28;20931;-68
2023/05/21 03:03:36;;;;;;;8.30;7.43;;;;;;;;;;5077014;28;20803;-68
2023/05/21 03:06:03;;;;;;;9.90;7.27;;;;;;;;;;5077151;28;20445;-68
2023/05/21 03:08:31;;;;;;;11.27;8.10;;;;;;;;;;5077179;28;20442;-68
2023/05/21 03:10:59;;;;;;;10.10;8.63;;;;;;;;;;5076484;28;20955;-69
2023/05/21 03:13:26;;;;;;;11.93;8.63;;;;;;;;;;5076599;28;20958;-68
2023/05/21 03:15:55;;;;;;;8.30;7.50;;;;;;;;;;5076112;28;20480;-68
2023/05/21 03:18:22;;;;;;;8.70;7.90;;;;;;;;;;5076727;28;20490;-68
2023/05/21 03:20:49;;;;;;;9.37;7.93;;;;;;;;;;5076595;28;20449;-69
2023/05/21 03:23:16;;;;;;;8.20;7.50;;;;;;;;;;5076359;28;20448;-68
2023/05/21 03:25:45;;;;;;;9.07;8.00;;;;;;;;;;5076252;28;20981;-68
2023/05/21 03:28:12;;;;;;;12.50;8.30;;;;;;;;;;5076599;28;20468;-68
2023/05/21 03:30:40;;;;;;;9.83;8.27;;;;;;;;;;5076367;28;20569;-67
2023/05/21 03:33:08;;;;;;;9.27;8.23;;;;;;;;;;5076196;28;20444;-68
2023/05/21 03:35:35;;;;;;;9.70;8.70;;;;;;;;;;5076039;28;20445;-67
2023/05/21 03:38:02;;;;;;;9.43;8.23;;;;;;;;;;5076207;28;20938;-67
2023/05/21 03:40:29;;;;;;;11.30;8.90;;;;;;;;;;5076328;28;20455;-67
2023/05/21 03:42:58;;;;;;;10.37;8.43;;;;;;;;;;5076390;28;20486;-66
2023/05/21 03:45:25;;;;;;;9.07;8.27;;;;;;;;;;5075798;28;20935;-67
2023/05/21 03:47:52;;;;;;;10.87;8.70;;;;;;;;;;5075531;28;20544;-68
2023/05/21 03:50:19;;;;;;;9.10;8.20;;;;;;;;;;5075451;28;20474;-67
2023/05/21 03:52:46;;;;;;;11.30;8.20;;;;;;;;;;5075841;28;20450;-67
2023/05/21 03:55:14;;;;;;;10.67;9.20;;;;;;;;;;5075662;28;20446;-67
2023/05/21 03:57:41;;;;;;;10.73;9.63;;;;;;;;;;5076137;28;20448;-67
2023/05/21 04:00:10;;;;;;;9.30;8.50;;;;;;;;;;5075627;28;20449;-68
2023/05/21 04:02:38;;;;;;;9.37;8.57;;;;;;;;;;5074719;28;20922;-67
2023/05/21 04:05:05;;;;;;;9.47;8.03;;;;;;;;;;5075461;28;20445;-67
2023/05/21 04:07:33;;;;;;;10.00;9.00;;;;;;;;;;5076039;28;20446;-67
2023/05/21 04:10:00;;;;;;;10.90;9.23;;;;;;;;;;5075469;28;20476;-67
2023/05/21 04:12:27;;;;;;;9.33;8.33;;;;;;;;;;5075835;28;20493;-67
2023/05/21 04:14:55;;;;;;;10.00;8.37;;;;;;;;;;5075949;28;20452;-67
2023/05/21 04:17:25;;;;;;;13.57;8.70;;;;;;;;;;5075817;28;20476;-67
2023/05/21 04:19:53;;;;;;;9.33;8.43;;;;;;;;;;5075109;28;20448;-66
2023/05/21 04:22:22;;;;;;;11.53;8.83;;;;;;;;;;5075318;28;20502;-67
2023/05/21 04:24:49;;;;;;;9.27;8.33;;;;;;;;;;5075466;28;20452;-67
2023/05/21 04:27:16;;;;;;;9.10;8.20;;;;;;;;;;5075724;28;20441;-67
2023/05/21 04:29:43;;;;;;;9.47;8.33;;;;;;;;;;5074890;28;20468;-68
2023/05/21 04:32:13;;;;;;;9.67;8.67;;;;;;;;;;5074943;28;20935;-67
2023/05/21 04:34:42;;;;;;;9.70;8.60;;;;;;;;;;5075051;28;20431;-67
2023/05/21 04:37:09;;;;;;;13.00;9.10;;;;;;;;;;5075183;28;20442;-67
2023/05/21 04:39:37;;;;;;;9.90;9.00;;;;;;;;;;5075191;28;20453;-67
2023/05/21 04:42:04;;;;;;;9.70;8.70;;;;;;;;;;5074489;28;20499;-67
2023/05/21 04:44:32;;;;;;;9.20;8.30;;;;;;;;;;5075129;28;20474;-67
2023/05/21 04:46:59;;;;;;;9.33;8.20;;;;;;;;;;5074879;28;20459;-67
2023/05/21 04:49:26;;;;;;;9.53;8.40;;;;;;;;;;5074475;28;20475;-67
2023/05/21 04:51:55;;;;;;;9.50;8.50;;;;;;;;;;5074510;28;20442;-68
2023/05/21 04:54:22;;;;;;;9.70;8.67;;;;;;;;;;5074905;28;20451;-67
2023/05/21 04:56:49;;;;;;;8.57;7.83;;;;;;;;;;5074482;28;20453;-67
2023/05/21 04:59:17;;;;;;;13.13;9.07;;;;;;;;;;5074722;28;20449;-67
2023/05/21 05:01:44;;;;;;;12.00;9.30;;;;;;;;;;5074499;28;20477;-67
2023/05/21 05:04:11;;;;;;;10.13;9.03;;;;;;;;;;5074762;28;20471;-67
2023/05/21 05:06:39;;;;;;;11.73;9.47;;;;;;;;;;5074276;28;20450;-67
2023/05/21 05:09:07;;;;;;;10.93;9.37;;;;;;;;;;5074650;28;20448;-67
2023/05/21 05:11:34;;;;;;;10.00;9.00;;;;;;;;;;5074283;28;20543;-67
2023/05/21 05:14:02;;;;;;;12.97;10.07;;;;;;;;;;5074432;28;20441;-67
2023/05/21 05:16:29;;;;;;;10.60;8.70;;;;;;;;;;5074415;28;20481;-67
2023/05/21 05:18:57;;;;;;;9.90;8.90;;;;;;;;;;5073967;28;20452;-67
2023/05/21 05:21:24;;;;;;;10.77;9.77;;;;;;;;;;5074065;28;20452;-67
2023/05/21 05:23:51;;;;;;;10.80;9.70;;;;;;;;;;5074347;28;20473;-67
2023/05/21 05:26:20;;;;;;;11.73;8.53;;;;;;;;;;5066087;28;20470;-68
2023/05/21 05:28:47;;;;;;;12.90;9.10;;;;;;;;;;5053690;28;20450;-68
2023/05/21 05:31:14;;;;;;;10.07;8.50;;;;;;;;;;5053694;28;20485;-67
2023/05/21 05:33:41;;;;;;;12.70;9.40;;;;;;;;;;5053679;28;20440;-67
2023/05/21 05:36:09;;;;;;;10.53;9.53;;;;;;;;;;5053905;28;20538;-68
2023/05/21 05:38:36;;;;;;;11.57;10.17;;;;;;;;;;5053782;28;20446;-68
2023/05/21 05:41:04;;;;;;;10.90;9.80;;;;;;;;;;5053524;28;20847;-68
2023/05/21 05:43:32;;;;;;;11.47;9.13;;;;;;;;;;5053587;28;20505;-67
2023/05/21 05:46:00;;;;;;;14.53;10.23;;;;;;;;;;5053718;28;20457;-67
2023/05/21 05:48:27;;;;;;;11.70;9.60;;;;;;;;;;5060370;28;20816;-67
2023/05/21 05:50:55;;;;;;;12.47;10.13;;;;;;;;;;5073306;28;20990;-68
2023/05/21 05:53:23;;;;;;;12.50;10.73;;;;;;;;;;5073796;28;20451;-67
2023/05/21 05:55:50;;;;;;;10.87;9.27;;;;;;;;;;5073801;28;20534;-67
2023/05/21 05:58:17;;;;;;;13.03;10.43;;;;;;;;;;5073570;28;20461;-67
2023/05/21 06:00:46;;;;;;;9.93;8.93;;;;;;;;;;5073554;28;20529;-68
2023/05/21 06:03:13;;;;;;;11.20;10.00;;;;;;;;;;5073244;28;20436;-67
2023/05/21 06:05:40;;;;;;;12.43;10.10;;;;;;;;;;5073284;28;20449;-67
2023/05/21 06:08:07;;;;;;;15.93;14.20;;;;;;;;;;5073481;28;20434;-67
2023/05/21 06:10:35;;;;;;;14.00;11.00;;;;;;;;;;5073504;28;20481;-67
2023/05/21 06:13:02;;;;;;;11.00;9.07;;;;;;;;;;5073381;28;20451;-67
2023/05/21 06:15:29;;;;;;;11.50;10.30;;;;;;;;;;5073306;28;20509;-67
2023/05/21 06:17:57;;;;;;;11.83;9.30;;;;;;;;;;5073428;28;20931;-67
2023/05/21 06:20:25;;;;;;;11.03;9.93;;;;;;;;;;5073879;28;20533;-67
2023/05/21 06:22:52;;;;;;;11.07;9.97;;;;;;;;;;5073194;28;20455;-67
2023/05/21 06:25:19;;;;;;;10.07;9.10;;;;;;;;;;5073017;28;20444;-67
2023/05/21 06:27:46;;;;;;;10.37;9.43;;;;;;;;;;5073293;28;20442;-67
2023/05/21 06:30:13;;;;;;;10.20;9.20;;;;;;;;;;5073194;28;20479;-67
2023/05/21 06:32:41;;;;;;;10.70;9.70;;;;;;;;;;5073399;28;20452;-67
2023/05/21 06:35:10;;;;;;;11.10;9.93;;;;;;;;;;5073257;28;20933;-67
2023/05/21 06:37:37;;;;;;;10.47;9.37;;;;;;;;;;5072838;28;20447;-67
2023/05/21 06:40:04;;;;;;;10.83;9.53;;;;;;;;;;5073218;28;20497;-67
2023/05/21 06:42:32;;;;;;;9.90;8.40;;;;;;;;;;5073015;28;20448;-67
2023/05/21 06:44:59;;;;;;;14.73;10.87;;;;;;;;;;5073246;28;20443;-67
2023/05/21 06:47:27;;;;;;;11.93;10.00;;;;;;;;;;5072617;28;20451;-73
2023/05/21 06:49:54;;;;;;;12.57;9.77;;;;;;;;;;5072969;28;20462;-69
2023/05/21 06:52:22;;;;;;;13.13;10.80;;;;;;;;;;5073015;28;20444;-67
2023/05/21 06:54:50;;;;;;;12.47;10.10;;;;;;;;;;5072789;28;20535;-68
2023/05/21 06:57:17;;;;;;;12.67;10.00;;;;;;;;;;5073364;28;20440;-67
2023/05/21 06:59:44;;;;;;;11.03;9.90;;;;;;;;;;5073085;28;20450;-68
2023/05/21 07:02:11;;;;;;;12.90;10.20;;;;;;;;;;5072392;28;20455;-69
2023/05/21 07:04:38;;;;;;;11.63;10.50;;;;;;;;;;5072692;28;20453;-68
2023/05/21 07:07:06;;;;;;;11.10;10.07;;;;;;;;;;5072888;28;20523;-68
2023/05/21 07:09:34;;;;;;;11.40;10.13;;;;;;;;;;5073018;28;20977;-68
2023/05/21 07:12:02;;;;;;;10.30;9.20;;;;;;;;;;5072619;28;20473;-70
2023/05/21 07:14:29;;;;;;;11.60;10.13;;;;;;;;;;5072569;28;20956;-66
2023/05/21 07:16:56;;;;;;;10.23;9.23;;;;;;;;;;5072930;28;20562;-65
2023/05/21 07:19:23;;;;;;;10.77;9.20;;;;;;;;;;5072841;28;20476;-65
2023/05/21 07:21:50;;;;;;;9.27;8.37;;;;;;;;;;5072947;28;20479;-65
2023/05/21 07:24:18;;;;;;;10.80;9.70;;;;;;;;;;5071939;28;20440;-66
2023/05/21 07:26:46;;;;;;;10.30;9.30;;;;;;;;;;5072726;28;20455;-65
2023/05/21 07:29:13;;;;;;;11.93;8.93;;;;;;;;;;5072772;28;20790;-65
2023/05/21 07:31:40;;;;;;;9.90;8.57;;;;;;;;;;5072939;28;20825;-65
2023/05/21 07:34:08;;;;;;;9.77;8.83;;;;;;;;;;5072814;28;20470;-65
2023/05/21 07:36:35;;;;;;;10.50;9.20;;;;;;;;;;5073463;28;20442;-65
2023/05/21 07:39:03;;;;;;;11.20;9.43;;;;;;;;;;5076193;28;20450;-65
2023/05/21 07:41:31;;;;;;;10.17;9.10;;;;;;;;;;5076582;28;20453;-65
2023/05/21 07:44:01;;;;;;;9.60;8.60;;;;;;;;;;5076198;28;20462;-65
2023/05/21 07:46:28;;;;;;;8.80;8.10;;;;;;;;;;5076085;28;20460;-67
2023/05/21 07:48:55;;;;;;;11.00;9.43;;;;;;;;;;5076323;28;20453;-65
2023/05/21 07:51:22;;;;;;;11.30;9.67;;;;;;;;;;5076071;28;20495;-65
2023/05/21 07:53:49;;;;;;;14.83;9.67;;;;;;;;;;5075926;28;20446;-65
2023/05/21 07:56:17;;;;;;;11.10;9.57;;;;;;;;;;5075675;28;20444;-65
2023/05/21 07:58:44;;;;;;;14.13;10.20;;;;;;;;;;5075403;28;20963;-65
2023/05/21 08:01:13;;;;;;;14.40;9.70;;;;;;;;;;5075618;28;20457;-65
2023/05/21 08:03:40;;;;;;;11.83;9.57;;;;;;;;;;5075528;28;20450;-65
2023/05/21 08:06:07;;;;;;;16.13;11.63;;;;;;;;;;5075396;28;20444;-65
2023/05/21 08:08:34;;;;;;;15.53;13.50;;;;;;;;;;5075203;28;20467;-65
2023/05/21 08:11:01;;;;;;;11.70;9.63;;;;;;;;;;5075232;28;20480;-65
2023/05/21 08:13:29;;;;;;;10.90;9.80;;;;;;;;;;5075260;28;20515;-65
2023/05/21 08:15:56;;;;;;;11.00;9.90;;;;;;;;;;5075335;28;20497;-65
2023/05/21 08:18:24;;;;;;;10.20;9.20;;;;;;;;;;5075450;28;20458;-65
2023/05/21 08:20:51;;;;;;;10.10;9.20;;;;;;;;;;5075345;28;20444;-65
2023/05/21 08:23:19;;;;;;;14.30;10.43;;;;;;;;;;5075145;28;20446;-65
2023/05/21 08:25:46;;;;;;;10.70;9.60;;;;;;;;;;5075015;28;20454;-65
2023/05/21 08:28:13;;;;;;;11.00;9.90;;;;;;;;;;5075305;28;20443;-64
2023/05/21 08:30:40;;;;;;;11.53;9.90;;;;;;;;;;5074946;28;20478;-65
2023/05/21 08:33:08;;;;;;;11.10;9.90;;;;;;;;;;5075319;28;20440;-65
2023/05/21 08:35:36;;;;;;;11.03;9.83;;;;;;;;;;5074988;28;20446;-65
2023/05/21 08:38:03;;;;;;;13.10;11.03;;;;;;;;;;5074953;28;20926;-65
2023/05/21 08:40:30;;;;;;;12.17;10.87;;;;;;;;;;5074983;28;20466;-66
2023/05/21 08:42:58;;;;;;;11.50;10.37;;;;;;;;;;5075072;28;20436;-65
2023/05/21 08:45:25;;;;;;;10.70;9.60;;;;;;;;;;5074754;28;20466;-65
2023/05/21 08:47:55;;;;;;;14.13;10.83;;;;;;;;;;5074700;28;20456;-65
2023/05/21 08:50:24;;;;;;;11.37;10.00;;;;;;;;;;5074667;28;21025;-65
2023/05/21 08:52:54;;;;;;;12.13;10.83;;;;;;;;;;5074454;28;20504;-65
2023/05/21 08:55:22;;;;;;;11.97;10.77;;;;;;;;;;5074614;28;20836;-65
2023/05/21 08:57:50;;;;;;;11.87;10.20;;;;;;;;;;5074563;28;20433;-65
2023/05/21 09:00:19;;;;;;;11.73;10.57;;;;;;;;;;5074593;28;20479;-65
2023/05/21 09:02:46;;;;;;;14.50;11.43;;;;;;;;;;5074294;28;20935;-65
2023/05/21 09:05:15;;;;;;;12.53;10.40;;;;;;;;;;5074628;28;20440;-65
2023/05/21 09:07:46;;;;;;;11.80;9.73;;;;;;;;;;5074625;28;20445;-65
2023/05/21 09:10:15;;;;;;;12.50;11.30;;;;;;;;;;5074627;28;20436;-65
2023/05/21 09:12:42;;;;;;;15.73;14.07;;;;;;;;;;5073949;28;20477;-65
2023/05/21 09:15:10;;;;;;;13.60;12.30;;;;;;;;;;5073554;28;20919;-65
2023/05/21 09:17:37;;;;;;;13.03;11.83;;;;;;;;;;5074810;28;20462;-65
2023/05/21 09:20:08;;;;;;;14.83;11.03;;;;;;;;;;5074104;28;20437;-65
2023/05/21 09:22:35;;;;;;;13.63;12.33;;;;;;;;;;5074824;28;20837;-65
2023/05/21 09:25:05;;;;;;;14.80;12.60;;;;;;;;;;5074286;28;20470;-65
2023/05/21 09:27:40;;;;;;;18.40;12.63;;;;;;;;;;5074105;28;20449;-65
2023/05/21 09:30:11;;;;;;;12.67;11.30;;;;;;;;;;5073723;28;20519;-65
2023/05/21 09:32:38;;;;;;;13.70;12.17;;;;;;;;;;5073842;28;20468;-65
2023/05/21 09:35:09;;;;;;;17.60;12.90;;;;;;;;;;5074150;28;20804;-65
2023/05/21 09:37:39;;;;;;;18.27;12.60;;;;;;;;;;5073647;28;20444;-65
2023/05/21 09:40:11;;;;;;;14.40;11.33;;;;;;;;;;5073708;28;20450;-65
2023/05/21 09:42:40;;;;;;;15.10;12.87;;;;;;;;;;5074315;28;20421;-65
2023/05/21 09:45:08;;;;;;;15.40;13.10;;;;;;;;;;5073397;28;20453;-65
2023/05/21 09:47:35;;;;;;;16.33;12.20;;;;;;;;;;5073678;28;20448;-65
2023/05/21 09:50:02;;;;;;;17.57;13.07;;;;;;;;;;5073402;28;20441;-65
2023/05/21 09:52:30;;;;;;;15.00;13.50;;;;;;;;;;5073339;28;21003;-65
2023/05/21 09:54:57;;;;;;;13.80;12.17;;;;;;;;;;5073237;28;20466;-65
2023/05/21 09:57:25;;;;;;;14.33;12.93;;;;;;;;;;5073282;28;20979;-65
2023/05/21 09:59:54;;;;;;;15.27;13.60;;;;;;;;;;5072819;28;20458;-65
2023/05/21 10:02:26;;;;;;;18.53;14.90;;;;;;;;;;5073596;28;20458;-65
2023/05/21 10:04:54;;;;;;;17.43;12.83;;;;;;;;;;5073132;28;20929;-64
2023/05/21 10:07:24;;;;;;;15.00;13.57;;;;;;;;;;5073735;28;20445;-64
2023/05/21 10:09:53;;;;;;;16.50;13.70;;;;;;;;;;5072325;28;20932;-65
2023/05/21 10:12:20;;;;;;;16.67;13.23;;;;;;;;;;5073406;28;20830;-64
2023/05/21 10:14:52;;;;;;;16.00;13.50;;;;;;;;;;5072840;28;20528;-65
2023/05/21 10:17:21;;;;;;;17.17;14.30;;;;;;;;;;5053360;28;20580;-64
2023/05/21 10:19:49;;;;;;;16.50;13.80;;;;;;;;;;5053764;28;20849;-66
2023/05/21 10:22:16;;;;;;;18.40;14.50;;;;;;;;;;5053516;28;20467;-66
2023/05/21 10:24:45;;;;;;;16.53;14.60;;;;;;;;;;5052782;28;20513;-65
2023/05/21 10:27:12;;;;;;;16.50;14.80;;;;;;;;;;5052802;28;20437;-65
2023/05/21 10:29:41;;;;;;;14.83;13.03;;;;;;;;;;5052864;28;20958;-66
2023/05/21 10:32:08;;;;;;;18.60;15.30;;;;;;;;;;5052448;28;20478;-65
2023/05/21 10:34:38;;;;;;;16.33;14.00;;;;;;;;;;5052539;28;20437;-64
2023/05/21 10:37:09;;;;;;;20.30;14.50;;;;;;;;;;5053266;28;20808;-64
2023/05/21 10:39:36;;;;;;;17.73;16.00;;;;;;;;;;5064237;28;20436;-64
2023/05/21 10:42:07;;;;;;;16.70;14.50;;;;;;;;;;5073045;28;20445;-64
2023/05/21 10:44:41;;;;;;;18.13;16.23;;;;;;;;;;5073101;28;20437;-65
2023/05/21 10:47:27;;;;;;;19.20;14.63;;;;;;;;;;5072749;28;20459;-64
2023/05/21 10:50:02;;;;;;;16.57;14.77;;;;;;;;;;5073010;28;20436;-64
2023/05/21 10:52:37;;;;;;;15.73;14.23;;;;;;;;;;5072801;28;20460;-64
2023/05/21 10:55:14;;;;;;;18.20;15.53;;;;;;;;;;5073221;28;20456;-64
2023/05/21 10:57:51;;;;;;;14.87;13.33;;;;;;;;;;5072634;28;20921;-64
2023/05/21 11:00:20;;;;;;;16.23;14.63;;;;;;;;;;5073193;28;20763;-64
2023/05/21 11:02:47;;;;;;;15.33;13.53;;;;;;;;;;5072665;28;20450;-64
2023/05/21 11:05:16;;;;;;;21.40;15.03;;;;;;;;;;5073298;28;20451;-64
2023/05/21 11:07:55;;;;;;;20.13;16.00;;;;;;;;;;5072739;28;20472;-64
2023/05/21 11:10:31;;;;;;;16.60;13.93;;;;;;;;;;5073640;28;20456;-64
2023/05/21 11:13:15;;;;;;;17.70;14.23;;;;;;;;;;5076576;28;20480;-64
2023/05/21 11:16:01;;;;;;;18.27;16.37;;;;;;;;;;5076581;28;20553;-66
2023/05/21 11:18:57;;;;;;;18.20;14.47;;;;;;;;;;5076659;28;20487;-64
2023/05/21 11:21:29;;;;;;;16.80;15.10;;;;;;;;;;5076215;28;20434;-64
2023/05/21 11:23:57;;;;;;;14.90;13.40;;;;;;;;;;5076674;28;20503;-64
2023/05/21 11:26:25;;;;;;;17.70;15.90;;;;;;;;;;5076611;28;20450;-64
2023/05/21 11:29:06;;;;;;;18.43;16.67;;;;;;;;;;5076417;28;20880;-64
2023/05/21 11:31:36;;;;;;;18.40;16.57;;;;;;;;;;5076336;28;20434;-64
2023/05/21 11:34:13;;;;;;;15.13;13.73;;;;;;;;;;5076531;28;20509;-64
2023/05/21 11:36:42;;;;;;;16.47;14.73;;;;;;;;;;5076040;28;20446;-64
2023/05/21 11:39:10;;;;;;;16.00;14.37;;;;;;;;;;5076715;28;20448;-64
2023/05/21 11:41:53;;;;;;;17.03;14.20;;;;;;;;;;5076162;28;20529;-65
2023/05/21 11:44:22;;;;;;;16.83;15.20;;;;;;;;;;5075886;28;20449;-65
2023/05/21 11:46:49;;;;;;;15.87;14.27;;;;;;;;;;5076165;28;20465;-64
2023/05/21 11:49:23;;;;;;;17.40;15.20;;;;;;;;;;5076160;28;20535;-65
2023/05/21 11:51:52;;;;;;;17.60;14.30;;;;;;;;;;5075950;28;20517;-64
2023/05/21 11:54:19;;;;;;;15.73;14.13;;;;;;;;;;5076266;28;20440;-65
2023/05/21 11:56:47;;;;;;;16.30;13.67;;;;;;;;;;5075520;28;20442;-65
2023/05/21 11:59:15;;;;;;;17.10;14.37;;;;;;;;;;5075907;28;20450;-65
2023/05/21 12:01:43;;;;;;;15.80;14.20;;;;;;;;;;5075898;28;20456;-66
2023/05/21 12:04:11;;;;;;;17.63;15.93;;;;;;;;;;5075488;28;20533;-65
2023/05/21 12:06:41;;;;;;;16.87;15.13;;;;;;;;;;5075729;28;20852;-65
2023/05/21 12:09:10;;;;;;;18.63;16.67;;;;;;;;;;5075833;28;20442;-68
2023/05/21 12:11:40;;;;;;;18.30;16.57;;;;;;;;;;5075078;28;20441;-65
2023/05/21 12:14:09;;;;;;;19.00;16.23;;;;;;;;;;5075139;28;20492;-65
2023/05/21 12:16:36;;;;;;;17.33;15.53;;;;;;;;;;5075023;28;20480;-66
2023/05/21 12:19:03;;;;;;;21.60;15.67;;;;;;;;;;5075372;28;20439;-65
2023/05/21 12:21:31;;;;;;;21.93;17.80;;;;;;;;;;5074988;28;20901;-65
2023/05/21 12:23:58;;;;;;;17.07;15.37;;;;;;;;;;5074744;28;20489;-65
2023/05/21 12:26:27;;;;;;;17.90;14.90;;;;;;;;;;5075358;28;20439;-65
2023/05/21 12:28:54;;;;;;;18.17;16.37;;;;;;;;;;5075329;28;20443;-70
2023/05/21 12:31:22;;;;;;;19.33;15.60;;;;;;;;;;5074992;28;20449;-67
2023/05/21 12:33:49;;;;;;;19.60;17.50;;;;;;;;;;5074832;28;20475;-67
2023/05/21 12:36:23;;;;;;;18.50;15.97;;;;;;;;;;5074665;28;20456;-67
2023/05/21 12:38:51;;;;;;;18.50;15.20;;;;;;;;;;5075065;28;20813;-66
2023/05/21 12:41:18;;;;;;;14.77;13.27;;;;;;;;;;5074807;28;20444;-66
2023/05/21 12:43:47;;;;;;;18.80;14.93;;;;;;;;;;5075050;28;20459;-67
2023/05/21 12:46:16;;;;;;;15.13;13.73;;;;;;;;;;5074908;28;20456;-66
2023/05/21 12:48:48;;;;;;;16.30;14.60;;;;;;;;;;5074510;28;20440;-67
2023/05/21 12:51:16;;;;;;;15.43;13.87;;;;;;;;;;5074997;28;20444;-67
2023/05/21 12:53:43;;;;;;;16.47;14.57;;;;;;;;;;5074367;28;20485;-67
2023/05/21 12:56:11;;;;;;;17.47;15.70;;;;;;;;;;5074697;28;20485;-67
2023/05/21 12:58:38;;;;;;;15.70;14.20;;;;;;;;;;5074711;28;20875;-67
2023/05/21 13:01:08;;;;;;;16.13;14.70;;;;;;;;;;5074450;28;20458;-67
2023/05/21 13:03:35;;;;;;;16.50;14.87;;;;;;;;;;5074867;28;20447;-67
2023/05/21 13:06:02;;;;;;;17.63;15.00;;;;;;;;;;5074566;28;20902;-67
2023/05/21 13:08:29;;;;;;;16.83;15.17;;;;;;;;;;5074381;28;20916;-67
2023/05/21 13:10:57;;;;;;;20.90;15.33;;;;;;;;;;5074668;28;20701;-67
2023/05/21 13:13:24;;;;;;;17.43;15.67;;;;;;;;;;5074417;28;20478;-67
2023/05/21 13:15:51;;;;;;;17.70;14.87;;;;;;;;;;5073911;28;20471;-67
2023/05/21 13:18:20;;;;;;;16.63;15.13;;;;;;;;;;5073831;28;20445;-68
2023/05/21 13:20:47;;;;;;;17.60;15.80;;;;;;;;;;5074023;28;20453;-67
2023/05/21 13:23:15;;;;;;;18.07;15.43;;;;;;;;;;5074287;28;20489;-68
2023/05/21 13:25:42;;;;;;;16.33;14.63;;;;;;;;;;5074603;28;20480;-65
2023/05/21 13:28:13;;;;;;;19.23;17.27;;;;;;;;;;5074108;28;20441;-65
2023/05/21 13:30:41;;;;;;;20.20;17.70;;;;;;;;;;5074428;28;20458;-65
2023/05/21 13:33:08;;;;;;;17.00;15.27;;;;;;;;;;5073675;28;20973;-66
2023/05/21 13:35:36;;;;;;;16.50;14.50;;;;;;;;;;5072852;28;20518;-66
2023/05/21 13:38:03;;;;;;;19.50;15.50;;;;;;;;;;5073985;28;20500;-65
2023/05/21 13:40:31;;;;;;;17.67;15.70;;;;;;;;;;5074081;28;20470;-66
2023/05/21 13:42:58;;;;;;;17.10;15.27;;;;;;;;;;5073567;28;20528;-65
2023/05/21 13:45:27;;;;;;;20.00;15.63;;;;;;;;;;5074103;28;20499;-65
2023/05/21 13:47:55;;;;;;;16.50;14.87;;;;;;;;;;5074209;28;20501;-66
2023/05/21 13:50:23;;;;;;;18.50;16.00;;;;;;;;;;5073505;28;20452;-65
2023/05/21 13:52:51;;;;;;;19.17;15.63;;;;;;;;;;5073895;28;20480;-66
2023/05/21 13:55:18;;;;;;;18.00;16.30;;;;;;;;;;5073487;28;20446;-65
2023/05/21 13:57:45;;;;;;;16.63;15.00;;;;;;;;;;5073775;28;20447;-65
2023/05/21 14:00:14;;;;;;;18.10;16.37;;;;;;;;;;5073610;28;20449;-65
2023/05/21 14:02:42;;;;;;;18.17;16.30;;;;;;;;;;5073670;28;20448;-65
2023/05/21 14:05:09;;;;;;;18.50;16.53;;;;;;;;;;5073601;28;20444;-65
2023/05/21 14:07:36;;;;;;;17.90;16.00;;;;;;;;;;5073640;28;20451;-65
2023/05/21 14:10:05;;;;;;;17.20;15.40;;;;;;;;;;5073341;28;20458;-65
2023/05/21 14:12:33;;;;;;;20.63;18.40;;;;;;;;;;5073135;28;20479;-66
2023/05/21 14:15:00;;;;;;;15.93;14.17;;;;;;;;;;5073304;28;20444;-65
2023/05/21 14:17:27;;;;;;;15.00;13.60;;;;;;;;;;5073722;28;20478;-65
2023/05/21 14:19:56;;;;;;;16.57;14.97;;;;;;;;;;5073497;28;20481;-65
2023/05/21 14:22:23;;;;;;;18.40;15.93;;;;;;;;;;5073348;28;20443;-65
2023/05/21 14:24:51;;;;;;;17.33;15.60;;;;;;;;;;5072865;28;20468;-65
2023/05/21 14:27:20;;;;;;;18.60;15.10;;;;;;;;;;5073319;28;20882;-65
2023/05/21 14:29:47;;;;;;;15.57;14.10;;;;;;;;;;5073228;28;20436;-65
2023/05/21 14:32:15;;;;;;;15.07;13.77;;;;;;;;;;5073358;28;20442;-65